createdAt,value
2017-10-05T00:01:46.961Z,11.90
2017-10-05T00:04:14.480Z,11.90
2017-10-05T00:06:42.744Z,11.90
2017-10-05T00:09:10.260Z,11.90
2017-10-05T00:11:37.753Z,11.90
2017-10-05T00:14:05.291Z,12.00
2017-10-05T00:16:32.782Z,12.00
2017-10-05T00:19:00.278Z,12.00
2017-10-05T00:21:27.795Z,12.00
2017-10-05T00:23:56.062Z,12.00
2017-10-05T00:26:23.583Z,12.00
2017-10-05T00:28:51.083Z,12.00
2017-10-05T00:31:19.375Z,12.00
2017-10-05T00:33:47.640Z,12.00
2017-10-05T00:36:15.180Z,12.00
2017-10-05T00:38:42.676Z,12.00
2017-10-05T00:41:10.160Z,12.00
2017-10-05T00:43:37.675Z,12.00
2017-10-05T00:46:05.936Z,12.00
2017-10-05T00:48:33.486Z,12.00
2017-10-05T00:51:00.996Z,12.00
2017-10-05T00:53:31.161Z,12.00
2017-10-05T00:55:58.654Z,12.10
2017-10-05T00:58:26.163Z,12.10
2017-10-05T01:00:53.670Z,12.10
2017-10-05T01:03:21.179Z,12.10
2017-10-05T01:05:48.671Z,12.10
2017-10-05T01:08:16.939Z,12.10
2017-10-05T01:10:44.448Z,12.00
2017-10-05T01:13:11.959Z,12.10
2017-10-05T01:15:40.217Z,12.10
2017-10-05T01:18:08.491Z,12.10
2017-10-05T01:20:36.756Z,12.00
2017-10-05T01:23:04.261Z,12.00
2017-10-05T01:25:31.802Z,12.00
2017-10-05T01:27:59.334Z,12.10
2017-10-05T01:30:26.871Z,12.10
2017-10-05T01:32:54.405Z,12.10
2017-10-05T01:35:21.894Z,12.10
2017-10-05T01:37:49.401Z,12.10
2017-10-05T01:40:16.903Z,12.10
2017-10-05T01:42:44.433Z,12.10
2017-10-05T01:45:11.937Z,12.00
2017-10-05T01:47:40.246Z,12.00
2017-10-05T01:50:07.739Z,12.00
2017-10-05T01:52:35.238Z,12.00
2017-10-05T01:55:02.811Z,12.00
2017-10-05T01:57:31.347Z,12.00
2017-10-05T01:59:58.848Z,12.00
2017-10-05T02:02:26.380Z,12.00
2017-10-05T02:04:54.678Z,12.00
2017-10-05T02:07:22.194Z,12.00
2017-10-05T02:09:49.688Z,12.00
2017-10-05T02:12:17.226Z,12.00
2017-10-05T02:14:45.488Z,11.90
2017-10-05T02:17:13.023Z,11.90
2017-10-05T02:19:40.512Z,11.90
2017-10-05T02:22:08.011Z,11.90
2017-10-05T02:24:35.540Z,11.90
2017-10-05T02:27:03.808Z,11.90
2017-10-05T02:29:32.091Z,11.90
2017-10-05T02:31:59.620Z,11.80
2017-10-05T02:34:27.124Z,11.90
2017-10-05T02:36:54.653Z,11.80
2017-10-05T02:39:22.912Z,11.80
2017-10-05T02:41:50.413Z,11.80
2017-10-05T02:44:17.951Z,11.80
2017-10-05T02:46:45.456Z,11.80
2017-10-05T02:49:12.953Z,11.80
2017-10-05T02:51:41.249Z,11.70
2017-10-05T02:54:08.789Z,11.70
2017-10-05T02:56:37.078Z,11.70
2017-10-05T02:59:04.612Z,11.70
2017-10-05T03:01:32.887Z,11.60
2017-10-05T03:04:01.173Z,11.60
2017-10-05T03:06:29.468Z,11.60
2017-10-05T03:08:56.968Z,11.60
2017-10-05T03:11:24.506Z,11.50
2017-10-05T03:13:52.028Z,11.50
2017-10-05T03:16:20.292Z,11.40
2017-10-05T03:18:48.588Z,11.40
2017-10-05T03:21:16.095Z,11.40
2017-10-05T03:23:43.587Z,11.40
2017-10-05T03:26:11.887Z,11.30
2017-10-05T03:28:39.388Z,11.30
2017-10-05T03:31:06.893Z,11.20
2017-10-05T03:33:34.421Z,11.20
2017-10-05T03:36:02.702Z,11.20
2017-10-05T03:38:30.231Z,11.20
2017-10-05T03:40:57.744Z,11.20
2017-10-05T03:43:25.272Z,11.10
2017-10-05T03:45:53.540Z,11.10
2017-10-05T03:48:21.068Z,11.10
2017-10-05T03:50:48.575Z,11.10
2017-10-05T03:53:16.139Z,11.10
2017-10-05T03:55:43.636Z,11.00
2017-10-05T03:58:11.168Z,11.00
2017-10-05T04:00:39.437Z,11.00
2017-10-05T04:03:06.936Z,11.00
2017-10-05T04:05:35.276Z,11.00
2017-10-05T04:08:03.550Z,10.90
2017-10-05T04:10:31.760Z,10.90
2017-10-05T04:12:59.432Z,10.90
2017-10-05T04:15:27.062Z,10.90
2017-10-05T04:17:54.564Z,10.90
2017-10-05T04:20:22.067Z,10.90
2017-10-05T04:22:49.596Z,10.90
2017-10-05T04:25:17.317Z,10.80
2017-10-05T04:27:44.858Z,10.80
2017-10-05T04:30:12.352Z,10.80
2017-10-05T04:32:39.928Z,10.80
2017-10-05T04:35:07.435Z,10.80
2017-10-05T04:37:34.941Z,10.80
2017-10-05T04:40:02.480Z,10.80
2017-10-05T04:42:30.749Z,10.80
2017-10-05T04:44:58.274Z,10.80
2017-10-05T04:47:25.821Z,10.80
2017-10-05T04:49:53.377Z,10.80
2017-10-05T04:52:20.891Z,10.80
2017-10-05T04:54:49.161Z,10.90
2017-10-05T04:57:17.458Z,10.90
2017-10-05T04:59:44.966Z,10.80
2017-10-05T05:02:12.489Z,10.90
2017-10-05T05:04:39.979Z,10.80
2017-10-05T05:07:07.524Z,10.80
2017-10-05T05:09:35.037Z,10.80
2017-10-05T05:12:02.527Z,10.80
2017-10-05T05:14:30.049Z,10.80
2017-10-05T05:16:57.595Z,10.80
2017-10-05T05:19:25.095Z,10.80
2017-10-05T05:21:52.627Z,10.80
2017-10-05T05:24:20.184Z,10.80
2017-10-05T05:26:47.684Z,10.80
2017-10-05T05:29:15.230Z,10.80
2017-10-05T05:31:42.772Z,10.80
2017-10-05T05:34:11.055Z,10.80
2017-10-05T05:36:38.616Z,10.80
2017-10-05T05:39:06.897Z,10.90
2017-10-05T05:41:34.444Z,10.80
2017-10-05T05:44:02.721Z,10.90
2017-10-05T05:46:30.996Z,11.00
2017-10-05T05:48:58.527Z,11.00
2017-10-05T05:51:26.075Z,11.00
2017-10-05T05:53:53.581Z,11.00
2017-10-05T05:56:21.093Z,11.10
2017-10-05T05:58:48.628Z,11.10
2017-10-05T06:01:16.133Z,11.10
2017-10-05T06:03:44.467Z,11.10
2017-10-05T06:06:11.969Z,11.10
2017-10-05T06:08:40.251Z,11.20
2017-10-05T06:11:08.549Z,11.20
2017-10-05T06:13:36.050Z,11.20
2017-10-05T06:16:03.574Z,11.20
2017-10-05T06:18:31.068Z,11.20
2017-10-05T06:20:58.603Z,11.30
2017-10-05T06:23:26.107Z,11.30
2017-10-05T06:25:54.405Z,11.30
2017-10-05T06:28:21.937Z,11.30
2017-10-05T06:30:50.197Z,11.40
2017-10-05T06:33:17.735Z,11.40
2017-10-05T06:35:45.237Z,11.40
2017-10-05T06:38:12.743Z,11.40
2017-10-05T06:40:40.302Z,11.40
2017-10-05T06:43:07.805Z,11.50
2017-10-05T06:45:35.344Z,11.50
2017-10-05T06:48:02.835Z,11.50
2017-10-05T06:50:30.368Z,11.60
2017-10-05T06:52:58.649Z,11.70
2017-10-05T06:55:26.958Z,11.70
2017-10-05T06:57:54.486Z,11.70
2017-10-05T07:00:22.792Z,11.80
2017-10-05T07:02:50.296Z,11.80
2017-10-05T07:05:17.819Z,11.90
2017-10-05T07:07:45.326Z,11.90
2017-10-05T07:10:12.869Z,12.00
2017-10-05T07:12:40.389Z,12.00
2017-10-05T07:15:07.893Z,12.00
2017-10-05T07:17:36.222Z,12.00
2017-10-05T07:20:03.755Z,12.00
2017-10-05T07:22:31.321Z,12.10
2017-10-05T07:24:58.858Z,12.10
2017-10-05T07:27:26.376Z,12.20
2017-10-05T07:29:53.913Z,12.20
2017-10-05T07:32:21.457Z,12.20
2017-10-05T07:34:48.987Z,12.30
2017-10-05T07:37:17.259Z,12.30
2017-10-05T07:39:44.806Z,12.30
2017-10-05T07:42:13.080Z,12.30
2017-10-05T07:44:41.381Z,12.40
2017-10-05T07:47:08.892Z,12.40
2017-10-05T07:49:36.424Z,12.40
2017-10-05T07:52:04.024Z,12.50
2017-10-05T07:54:32.315Z,12.50
2017-10-05T07:57:00.606Z,12.60
2017-10-05T07:59:28.141Z,12.50
2017-10-05T08:01:56.415Z,12.60
2017-10-05T08:04:24.718Z,12.60
2017-10-05T08:06:52.225Z,12.60
2017-10-05T08:09:19.732Z,12.70
2017-10-05T08:11:47.261Z,12.70
2017-10-05T08:14:15.553Z,12.70
2017-10-05T08:16:43.106Z,12.70
2017-10-05T08:19:11.375Z,12.80
2017-10-05T08:21:38.868Z,12.80
2017-10-05T08:24:06.420Z,12.80
2017-10-05T08:26:33.924Z,12.80
2017-10-05T08:29:01.425Z,12.90
2017-10-05T08:31:28.977Z,12.90
2017-10-05T08:33:56.481Z,12.90
2017-10-05T08:36:23.984Z,12.90
2017-10-05T08:38:51.527Z,13.00
2017-10-05T08:41:19.796Z,13.00
2017-10-05T08:43:48.103Z,13.00
2017-10-05T08:46:15.610Z,13.00
2017-10-05T08:48:43.122Z,13.00
2017-10-05T08:51:10.623Z,13.10
2017-10-05T08:53:38.164Z,13.10
2017-10-05T08:56:05.674Z,13.10
2017-10-05T08:58:33.240Z,13.10
2017-10-05T09:01:00.741Z,13.20
2017-10-05T09:03:28.254Z,13.20
2017-10-05T09:05:55.800Z,13.20
2017-10-05T09:08:23.307Z,13.20
2017-10-05T09:10:50.816Z,13.20
2017-10-05T09:13:18.359Z,13.30
2017-10-05T09:15:46.658Z,13.30
2017-10-05T09:18:14.174Z,13.30
2017-10-05T09:20:41.722Z,13.30
2017-10-05T09:23:09.219Z,13.30
2017-10-05T09:25:36.764Z,13.40
2017-10-05T09:28:04.277Z,13.40
2017-10-05T09:30:31.773Z,13.40
2017-10-05T09:32:59.300Z,13.40
2017-10-05T09:35:26.799Z,13.50
2017-10-05T09:37:55.096Z,13.50
2017-10-05T09:40:22.602Z,13.50
2017-10-05T09:42:50.142Z,13.50
2017-10-05T09:45:17.652Z,13.50
2017-10-05T09:47:45.200Z,13.50
2017-10-05T09:50:12.729Z,13.50
2017-10-05T09:52:41.009Z,13.60
2017-10-05T09:55:08.562Z,13.60
2017-10-05T09:57:36.056Z,13.60
2017-10-05T10:00:03.597Z,13.60
2017-10-05T10:02:31.896Z,13.70
2017-10-05T10:04:59.397Z,13.70
2017-10-05T10:07:26.924Z,13.70
2017-10-05T10:09:54.424Z,13.70
2017-10-05T10:12:21.963Z,13.70
2017-10-05T10:14:49.461Z,13.70
2017-10-05T10:17:17.012Z,13.70
2017-10-05T10:19:44.525Z,13.80
2017-10-05T10:22:12.023Z,13.80
2017-10-05T10:24:39.603Z,13.80
2017-10-05T10:27:07.104Z,13.80
2017-10-05T10:29:34.656Z,13.80
2017-10-05T10:32:02.211Z,13.90
2017-10-05T10:34:29.718Z,13.90
2017-10-05T10:36:58.012Z,13.90
2017-10-05T10:39:25.515Z,13.90
2017-10-05T10:41:53.052Z,13.90
2017-10-05T10:44:20.560Z,14.00
2017-10-05T10:46:48.837Z,14.00
2017-10-05T10:49:16.403Z,14.00
2017-10-05T10:51:43.927Z,14.00
2017-10-05T10:54:11.464Z,14.10
2017-10-05T10:56:38.987Z,14.10
2017-10-05T10:59:06.513Z,14.10
2017-10-05T11:01:34.049Z,14.10
2017-10-05T11:04:01.553Z,14.10
2017-10-05T11:06:29.098Z,14.20
2017-10-05T11:08:57.364Z,14.20
2017-10-05T11:11:24.888Z,14.10
2017-10-05T11:13:52.416Z,14.20
2017-10-05T11:16:19.965Z,14.20
2017-10-05T11:18:47.525Z,14.20
2017-10-05T11:21:15.064Z,14.30
2017-10-05T11:23:43.336Z,14.30
2017-10-05T11:26:10.870Z,14.30
2017-10-05T11:28:38.372Z,14.30
2017-10-05T11:31:05.872Z,14.30
2017-10-05T11:33:33.410Z,14.30
2017-10-05T11:36:00.911Z,14.40
2017-10-05T11:38:29.188Z,14.40
2017-10-05T11:40:57.477Z,14.40
2017-10-05T11:43:25.782Z,14.40
2017-10-05T11:45:53.284Z,14.40
2017-10-05T11:48:20.783Z,14.50
2017-10-05T11:50:48.334Z,14.50
2017-10-05T11:53:15.844Z,14.50
2017-10-05T11:55:43.336Z,14.50
2017-10-05T11:58:10.876Z,14.50
2017-10-05T12:00:38.378Z,14.50
2017-10-05T12:03:05.916Z,14.60
2017-10-05T12:05:33.467Z,14.60
2017-10-05T12:08:01.738Z,14.60
2017-10-05T12:10:30.004Z,14.60
2017-10-05T12:12:58.301Z,14.60
2017-10-05T12:15:25.812Z,14.60
2017-10-05T12:17:53.332Z,14.70
2017-10-05T12:20:20.829Z,14.70
2017-10-05T12:22:48.360Z,14.70
2017-10-05T12:25:15.863Z,14.70
2017-10-05T12:27:44.165Z,14.70
2017-10-05T12:30:11.704Z,14.70
2017-10-05T12:32:40.025Z,14.70
2017-10-05T12:35:07.535Z,14.80
2017-10-05T12:37:35.054Z,14.80
2017-10-05T12:40:02.598Z,14.80
2017-10-05T12:42:30.121Z,14.80
2017-10-05T12:44:57.656Z,14.80
2017-10-05T12:47:25.985Z,14.80
2017-10-05T12:49:53.492Z,14.80
2017-10-05T12:52:21.829Z,14.80
2017-10-05T12:54:49.365Z,14.80
2017-10-05T12:57:16.865Z,14.80
2017-10-05T12:59:44.421Z,14.80
2017-10-05T13:02:11.931Z,14.80
2017-10-05T13:04:40.193Z,14.80
2017-10-05T13:07:07.765Z,14.80
2017-10-05T13:09:35.270Z,14.90
2017-10-05T13:12:03.030Z,14.90
2017-10-05T13:14:32.747Z,14.90
2017-10-05T13:17:01.032Z,14.90
2017-10-05T13:19:30.179Z,14.90
2017-10-05T13:21:57.749Z,14.90
2017-10-05T13:24:26.472Z,14.90
2017-10-05T13:26:54.916Z,15.00
2017-10-05T13:29:24.001Z,14.90
2017-10-05T13:31:51.513Z,15.00
2017-10-05T13:34:19.773Z,15.00
2017-10-05T13:36:48.296Z,15.00
2017-10-05T13:39:15.839Z,15.00
2017-10-05T13:41:43.584Z,15.00
2017-10-05T13:44:11.885Z,15.10
2017-10-05T13:46:39.399Z,15.10
2017-10-05T13:49:06.944Z,15.10
2017-10-05T13:51:34.466Z,15.10
2017-10-05T13:54:01.956Z,15.10
2017-10-05T13:56:29.493Z,15.10
2017-10-05T13:58:56.992Z,15.10
2017-10-05T14:01:25.292Z,15.10
2017-10-05T14:03:52.812Z,15.10
2017-10-05T14:06:20.349Z,15.10
2017-10-05T14:08:47.857Z,15.10
2017-10-05T14:11:15.400Z,15.00
2017-10-05T14:13:43.673Z,15.00
2017-10-05T14:16:11.980Z,15.00
2017-10-05T14:18:39.481Z,15.00
2017-10-05T14:21:07.010Z,15.00
2017-10-05T14:23:34.517Z,15.00
2017-10-05T14:26:02.045Z,15.00
2017-10-05T14:28:29.544Z,15.00
2017-10-05T14:30:57.847Z,15.00
2017-10-05T14:33:25.336Z,15.00
2017-10-05T14:35:54.453Z,15.00
2017-10-05T14:38:21.993Z,15.00
2017-10-05T14:40:49.497Z,15.00
2017-10-05T14:43:17.002Z,14.90
2017-10-05T14:45:44.538Z,14.90
2017-10-05T14:48:12.055Z,14.90
2017-10-05T14:50:40.351Z,14.90
2017-10-05T14:53:07.878Z,14.90
2017-10-05T14:55:35.383Z,14.90
2017-10-05T14:58:02.918Z,14.90
2017-10-05T15:00:30.424Z,14.90
2017-10-05T15:02:57.983Z,14.90
2017-10-05T15:05:25.496Z,14.90
2017-10-05T15:07:52.996Z,14.90
2017-10-05T15:10:20.533Z,14.90
2017-10-05T15:12:48.046Z,14.80
2017-10-05T15:15:16.341Z,14.80
2017-10-05T15:17:43.858Z,14.80
2017-10-05T15:20:11.367Z,14.80
2017-10-05T15:22:38.898Z,14.80
2017-10-05T15:25:06.421Z,14.80
2017-10-05T15:27:33.979Z,14.80
2017-10-05T15:30:01.485Z,14.70
2017-10-05T15:32:39.289Z,14.70
2017-10-05T15:35:06.814Z,14.70
2017-10-05T15:37:35.168Z,14.70
2017-10-05T15:40:02.714Z,14.60
2017-10-05T15:42:30.437Z,14.70
2017-10-05T15:44:57.965Z,14.70
2017-10-05T15:47:26.293Z,14.60
2017-10-05T15:49:53.793Z,14.60
2017-10-05T15:52:22.068Z,14.60
2017-10-05T15:54:50.377Z,14.60
2017-10-05T15:57:17.948Z,14.60
2017-10-05T15:59:45.500Z,14.60
2017-10-05T16:02:13.012Z,14.60
2017-10-05T16:04:40.520Z,14.60
2017-10-05T16:07:08.045Z,14.60
2017-10-05T16:09:35.589Z,14.60
2017-10-05T16:12:03.866Z,14.60
2017-10-05T16:14:32.174Z,14.60
2017-10-05T16:16:59.680Z,14.60
2017-10-05T16:19:27.192Z,14.60
2017-10-05T16:21:54.737Z,14.60
2017-10-05T16:24:22.250Z,14.60
2017-10-05T16:26:49.752Z,14.60
2017-10-05T16:29:17.367Z,14.60
2017-10-05T16:31:46.064Z,14.60
2017-10-05T16:34:14.590Z,14.60
2017-10-05T16:36:42.127Z,14.60
2017-10-05T16:39:09.658Z,14.60
2017-10-05T16:41:37.293Z,14.60
2017-10-05T16:44:04.792Z,14.60
2017-10-05T16:46:33.059Z,14.60
2017-10-05T16:49:01.339Z,14.60
2017-10-05T16:51:28.853Z,14.60
2017-10-05T16:53:56.359Z,14.60
2017-10-05T16:56:23.915Z,14.60
2017-10-05T16:58:51.438Z,14.60
2017-10-05T17:01:18.940Z,14.60
2017-10-05T17:03:46.441Z,14.60
2017-10-05T17:06:13.966Z,14.60
2017-10-05T17:08:41.470Z,14.60
2017-10-05T17:11:08.992Z,14.60
2017-10-05T17:13:36.496Z,14.60
2017-10-05T17:16:04.923Z,14.50
2017-10-05T17:18:32.437Z,14.50
2017-10-05T17:21:00.710Z,14.50
2017-10-05T17:23:32.240Z,14.50
2017-10-05T17:25:59.751Z,14.50
2017-10-05T17:28:44.761Z,14.50
2017-10-05T17:31:12.299Z,14.50
2017-10-05T17:33:39.837Z,14.50
2017-10-05T17:36:07.357Z,14.40
2017-10-05T17:38:35.620Z,14.40
2017-10-05T17:41:03.142Z,14.40
2017-10-05T17:43:32.689Z,14.40
2017-10-05T17:46:00.200Z,14.40
2017-10-05T17:48:27.747Z,14.40
2017-10-05T17:50:55.241Z,14.40
2017-10-05T17:53:22.765Z,14.50
2017-10-05T17:55:50.256Z,14.40
2017-10-05T17:58:17.915Z,14.40
2017-10-05T18:00:56.841Z,14.40
2017-10-05T18:03:24.484Z,14.40
2017-10-05T18:05:51.996Z,14.40
2017-10-05T18:08:20.255Z,14.40
2017-10-05T18:10:47.761Z,14.40
2017-10-05T18:13:15.272Z,14.40
2017-10-05T18:15:43.564Z,14.40
2017-10-05T18:18:11.084Z,14.40
2017-10-05T18:20:38.621Z,14.40
2017-10-05T18:23:06.140Z,14.40
2017-10-05T18:25:33.864Z,14.40
2017-10-05T18:28:01.395Z,14.40
2017-10-05T18:30:28.891Z,14.40
2017-10-05T18:32:56.404Z,14.40
2017-10-05T18:35:24.090Z,14.40
2017-10-05T18:37:58.577Z,14.40
2017-10-05T18:40:26.097Z,14.40
2017-10-05T18:42:53.872Z,14.40
2017-10-05T18:45:21.424Z,14.40
2017-10-05T18:47:48.948Z,14.40
2017-10-05T18:50:16.485Z,14.40
2017-10-05T18:52:43.985Z,14.40
2017-10-05T18:55:11.562Z,14.40
2017-10-05T18:57:39.076Z,14.40
2017-10-05T19:00:06.586Z,14.40
2017-10-05T19:02:34.234Z,14.40
2017-10-05T19:05:01.764Z,14.40
2017-10-05T19:07:30.061Z,14.30
2017-10-05T19:09:57.627Z,14.30
2017-10-05T19:12:25.161Z,14.30
2017-10-05T19:14:53.439Z,14.30
2017-10-05T19:17:21.766Z,14.30
2017-10-05T19:19:49.328Z,14.30
2017-10-05T19:22:16.850Z,14.30
2017-10-05T19:24:44.387Z,14.30
2017-10-05T19:27:12.687Z,14.30
2017-10-05T19:29:40.254Z,14.30
2017-10-05T19:32:07.801Z,14.30
2017-10-05T19:34:35.314Z,14.30
2017-10-05T19:37:02.862Z,14.30
2017-10-05T19:39:30.372Z,14.20
2017-10-05T19:41:57.906Z,14.20
2017-10-05T19:44:26.182Z,14.20
2017-10-05T19:46:54.494Z,14.10
2017-10-05T19:49:22.053Z,14.10
2017-10-05T19:51:49.605Z,14.10
2017-10-05T19:54:17.210Z,14.10
2017-10-05T19:56:45.356Z,14.10
2017-10-05T20:02:04.470Z,14.00
2017-10-05T20:04:33.199Z,14.00
2017-10-05T20:07:00.750Z,13.90
2017-10-05T20:09:28.250Z,13.90
2017-10-05T20:11:55.764Z,13.80
2017-10-05T20:14:43.205Z,13.80
2017-10-05T20:20:36.003Z,13.80
2017-10-05T20:23:18.408Z,13.80
2017-10-05T20:25:51.718Z,13.80
2017-10-05T20:28:25.223Z,13.70
2017-10-05T20:30:59.117Z,13.70
2017-10-05T20:33:26.661Z,13.70
2017-10-05T20:35:54.172Z,13.70
2017-10-05T20:38:21.716Z,13.60
2017-10-05T20:40:50.030Z,13.60
2017-10-05T20:43:17.654Z,13.60
2017-10-05T20:45:45.177Z,13.60
2017-10-05T20:48:12.685Z,13.60
2017-10-05T20:50:40.211Z,13.60
2017-10-05T20:53:08.481Z,13.60
2017-10-05T20:55:36.006Z,13.60
2017-10-05T20:58:03.505Z,13.60
2017-10-05T21:00:32.216Z,13.50
2017-10-05T21:02:59.774Z,13.50
2017-10-05T21:05:27.299Z,13.50
2017-10-05T21:07:55.780Z,13.50
2017-10-05T21:10:24.062Z,13.50
2017-10-05T21:12:52.346Z,13.50
2017-10-05T21:15:19.861Z,13.50
2017-10-05T21:17:47.365Z,13.50
2017-10-05T21:20:14.902Z,13.50
2017-10-05T21:22:43.185Z,13.40
2017-10-05T21:25:11.456Z,13.40
2017-10-05T21:27:39.867Z,13.40
2017-10-05T21:30:07.400Z,13.40
2017-10-05T21:32:34.922Z,13.40
2017-10-05T21:35:02.486Z,13.40
2017-10-05T21:37:30.014Z,13.40
2017-10-05T21:39:57.538Z,13.30
2017-10-05T21:42:25.167Z,13.30
2017-10-05T21:44:52.851Z,13.30
2017-10-05T21:47:20.396Z,13.30
2017-10-05T21:49:48.713Z,13.30
2017-10-05T21:52:16.280Z,13.30
2017-10-05T21:54:43.808Z,13.30
2017-10-05T21:57:11.347Z,13.30
2017-10-05T21:59:38.917Z,13.20
2017-10-05T22:02:06.433Z,13.20
2017-10-05T22:04:34.848Z,13.20
2017-10-05T22:07:02.351Z,13.20
2017-10-05T22:09:29.862Z,13.20
2017-10-05T22:11:57.386Z,13.20
2017-10-05T22:14:25.667Z,13.10
2017-10-05T22:16:54.118Z,13.10
2017-10-05T22:19:21.628Z,13.10
2017-10-05T22:21:49.146Z,13.10
2017-10-05T22:24:17.441Z,13.10
2017-10-05T22:26:44.938Z,13.10
2017-10-05T22:29:12.566Z,13.10
2017-10-05T22:31:40.085Z,13.10
2017-10-05T22:34:07.593Z,13.10
2017-10-05T22:36:35.146Z,13.10
2017-10-05T22:39:02.670Z,13.10
2017-10-05T22:41:30.981Z,13.00
2017-10-05T22:43:58.491Z,13.00
2017-10-05T22:46:25.996Z,13.00
2017-10-05T22:48:53.553Z,13.00
2017-10-05T22:51:21.058Z,13.00
2017-10-05T22:53:48.572Z,13.00
2017-10-05T22:56:16.106Z,13.00
2017-10-05T22:58:43.629Z,13.00
2017-10-05T23:01:11.138Z,13.00
2017-10-05T23:03:38.766Z,13.00
2017-10-05T23:06:07.045Z,12.90
2017-10-05T23:08:35.327Z,12.90
2017-10-05T23:11:02.853Z,12.80
2017-10-05T23:13:30.358Z,12.80
2017-10-05T23:15:57.865Z,12.80
2017-10-05T23:18:25.405Z,12.80
2017-10-05T23:20:52.908Z,12.80
2017-10-05T23:23:20.438Z,12.80
2017-10-05T23:25:47.961Z,12.80
2017-10-05T23:28:15.470Z,12.80
2017-10-05T23:30:43.910Z,12.80
2017-10-05T23:33:11.427Z,12.80
2017-10-05T23:35:38.935Z,12.80
2017-10-05T23:38:06.565Z,12.70
2017-10-05T23:40:34.074Z,12.70
2017-10-05T23:43:02.357Z,12.60
2017-10-05T23:45:30.647Z,12.60
2017-10-05T23:47:58.165Z,12.60
2017-10-05T23:50:25.794Z,12.60
2017-10-05T23:52:53.305Z,12.60
2017-10-05T23:55:21.577Z,12.50
2017-10-05T23:57:49.882Z,12.50
